TimeCST,TemperatureF,Dew PointF,Humidity,Sea Level PressureIn,VisibilityMPH,Wind Direction,Wind SpeedMPH,Gust SpeedMPH,PrecipitationIn,Events,Conditions,WindDirDegrees,DateUTC
12:40 AM,46.4,28.4,50,30.36,10.0,North,9.2,-,N/A,,Clear,360,2012-11-13 06:40:00
5:30 AM,34,25,60,30.35,3,WNW,4.5,,,,Haze,290,2012-11-13 11:30:00
6:00 AM,42.8,33.8,70,30.30,10.0,South,6.9,-,N/A,,Clear,170,2012-11-13 12:00:00
6:40 AM,42.8,33.8,70,30.32,10.0,NE,9.2,-,N/A,,Clear,40,2012-11-13 12:40:00
7:40 AM,44.6,33.8,66,30.34,10.0,NE,9.2,-,N/A,,Scattered Clouds,40,2012-11-13 13:40:00
8:30 AM,40,28,50,30.38,10,East,4.5,,,,Haze,90,2012-11-13 14:30:00
8:40 AM,48.2,35.6,62,30.36,10.0,North,9.2,-,N/A,,Mostly Cloudy,360,2012-11-13 14:40:00
9:40 AM,50.0,42.8,76,30.36,10.0,NE,15.0,-,N/A,,Mostly Cloudy,50,2012-11-13 15:40:00
11:30 AM,49,32,39,30.33,9,SE,11.2,,,,Haze,140,2012-11-13 17:30:00
11:40 AM,53.6,41.0,62,30.34,10.0,North,13.8,-,N/A,,Mostly Cloudy,360,2012-11-13 17:40:00
12:40 PM,53.6,41.0,62,30.31,10.0,NNE,11.5,-,N/A,,Mostly Cloudy,30,2012-11-13 18:40:00
1:40 PM,53.6,41.0,62,30.27,10.0,NNE,13.8,-,N/A,,Mostly Cloudy,30,2012-11-13 19:40:00
2:30 PM,51,34,39,30.20,9,ESE,6.7,,,,Haze,120,2012-11-13 20:30:00
2:40 PM,53.6,41.0,62,30.25,10.0,North,11.5,-,N/A,,Mostly Cloudy,360,2012-11-13 20:40:00
3:40 PM,51.8,39.2,62,30.24,10.0,NE,17.3,-,N/A,,Mostly Cloudy,40,2012-11-13 21:40:00
4:40 PM,50.0,37.4,62,30.22,10.0,NE,13.8,-,N/A,,Mostly Cloudy,40,2012-11-13 22:40:00
5:30 PM,46,32,45,30.16,7,ESE,4.5,,,,Haze,120,2012-11-13 23:30:00
5:40 PM,50.0,37.4,62,30.24,10.0,North,9.2,-,N/A,,Mostly Cloudy,360,2012-11-13 23:40:00
6:40 PM,46.4,33.8,62,30.24,10.0,NE,13.8,-,N/A,,Mostly Cloudy,40,2012-11-14 00:40:00
7:40 PM,44.6,33.8,66,30.27,10.0,North,9.2,-,N/A,,Mostly Cloudy,360,2012-11-14 01:40:00
8:30 PM,41,33,64,30.19,2,East,4.5,,,,Haze,90,2012-11-14 02:30:00
8:40 PM,44.6,33.8,66,30.29,10.0,NE,9.2,-,N/A,,Scattered Clouds,40,2012-11-14 02:40:00
9:40 PM,44.6,33.8,66,30.30,10.0,NE,9.2,-,N/A,,Scattered Clouds,40,2012-11-14 03:40:00
10:40 PM,42.8,30.2,61,30.30,10.0,NE,9.2,-,N/A,,Clear,40,2012-11-14 04:40:00
11:30 PM,38,33,75,30.21,3,ESE,2.2,,,,Haze,110,2012-11-14 05:30:00
11:40 PM,42.8,30.2,61,30.30,10.0,North,11.5,-,N/A,,Clear,360,2012-11-14 05:40:00